Time,TemperatureF,DewpointF,PressureIn,WindDirection,WindDirectionDegrees,WindSpeedMPH,WindSpeedGustMPH,Humidity,HourlyPrecipIn,Conditions,Clouds,dailyrainin,SoftwareType,DateUTC
2013-03-09 00:00:00,33.6,27.5,30.26,NNE,12,4.0,5.0,78,0.00,,,0.23,HR-IXPWINDi_r2_v1.2.,2013-03-09 05:00:00,
2013-03-09 00:05:00,33.5,27.4,30.26,NNW,338,1.0,4.0,78,0.00,,,0.00,HR-IXPWINDi_r2_v1.2.,2013-03-09 05:05:00,
2013-03-09 00:10:00,33.1,27.6,30.26,NNW,348,0.0,4.0,80,0.00,,,0.00,HR-IXPWINDi_r2_v1.2.,2013-03-09 05:10:00,
2013-03-09 00:16:00,33.0,27.5,30.26,NNW,345,3.0,4.0,80,0.00,,,0.00,HR-IXPWINDi_r2_v1.2.,2013-03-09 05:16:00,
2013-03-09 00:21:00,33.2,27.4,30.26,NNW,345,0.0,4.0,79,0.00,,,0.00,HR-IXPWINDi_r2_v1.2.,2013-03-09 05:21:00,
2013-03-09 00:26:00,33.2,27.4,30.26,North,358,1.0,3.0,79,0.00,,,0.00,HR-IXPWINDi_r2_v1.2.,2013-03-09 05:26:00,
2013-03-09 00:31:00,33.3,27.2,30.26,ENE,72,2.0,5.0,78,0.00,,,0.00,HR-IXPWINDi_r2_v1.2.,2013-03-09 05:31:00,
2013-03-09 00:37:00,33.2,27.1,30.26,North,360,0.0,5.0,78,0.00,,,0.00,HR-IXPWINDi_r2_v1.2.,2013-03-09 05:37:00,
2013-03-09 00:42:00,32.9,27.1,30.26,SE,131,1.0,4.0,79,0.00,,,0.00,HR-IXPWINDi_r2_v1.2.,2013-03-09 05:42:00,
2013-03-09 00:47:00,32.7,26.9,30.26,North,356,0.0,2.0,79,0.00,,,0.00,HR-IXPWINDi_r2_v1.2.,2013-03-09 05:47:00,
2013-03-09 00:52:00,32.5,26.7,30.27,NW,317,1.0,2.0,79,0.00,,,0.00,HR-IXPWINDi_r2_v1.2.,2013-03-09 05:52:00,
2013-03-09 00:57:00,32.4,26.9,30.27,NNW,342,0.0,2.0,80,0.00,,,0.00,HR-IXPWINDi_r2_v1.2.,2013-03-09 05:57:00,
2013-03-09 01:03:00,32.1,26.6,30.27,South,188,0.0,2.0,80,0.00,,,0.00,HR-IXPWINDi_r2_v1.2.,2013-03-09 06:03:00,
2013-03-09 01:08:00,31.8,26.3,30.27,South,188,0.0,1.0,80,0.00,,,0.00,HR-IXPWINDi_r2_v1.2.,2013-03-09 06:08:00,
2013-03-09 01:13:00,31.4,26.2,30.27,South,188,0.0,1.0,81,0.00,,,0.00,HR-IXPWINDi_r2_v1.2.,2013-03-09 06:13:00,
2013-03-09 01:18:00,31.2,26.0,30.27,South,188,0.0,0.0,81,0.00,,,0.00,HR-IXPWINDi_r2_v1.2.,2013-03-09 06:18:00,
2013-03-09 01:23:00,31.0,26.4,30.27,South,188,1.0,1.0,83,0.00,,,0.00,HR-IXPWINDi_r2_v1.2.,2013-03-09 06:23:00,
2013-03-09 01:29:00,30.7,26.1,30.27,SSW,200,0.0,2.0,83,0.00,,,0.00,HR-IXPWINDi_r2_v1.2.,2013-03-09 06:29:00,
2013-03-09 01:34:00,30.5,26.2,30.27,SSW,211,1.0,2.0,84,0.00,,,0.00,HR-IXPWINDi_r2_v1.2.,2013-03-09 06:34:00,
2013-03-09 01:39:00,30.4,26.1,30.27,SSW,213,0.0,2.0,84,0.00,,,0.00,HR-IXPWINDi_r2_v1.2.,2013-03-09 06:39:00,
2013-03-09 01:44:00,30.2,26.2,30.27,SSW,213,0.0,1.0,85,0.00,,,0.00,HR-IXPWINDi_r2_v1.2.,2013-03-09 06:44:00,
2013-03-09 01:49:00,29.9,25.9,30.27,SSW,213,0.0,0.0,85,0.00,,,0.00,HR-IXPWINDi_r2_v1.2.,2013-03-09 06:49:00,
2013-03-09 01:55:00,29.7,26.0,30.27,NNW,341,1.0,2.0,86,0.00,,,0.00,HR-IXPWINDi_r2_v1.2.,2013-03-09 06:55:00,
2013-03-09 02:00:00,29.5,25.8,30.27,NNW,341,0.0,2.0,86,0.00,,,0.00,HR-IXPWINDi_r2_v1.2.,2013-03-09 07:00:00,
2013-03-09 02:05:00,29.2,26.1,30.27,NNW,341,0.0,1.0,88,0.00,,,0.00,HR-IXPWINDi_r2_v1.2.,2013-03-09 07:05:00,
2013-03-09 02:10:00,28.7,25.9,30.27,NNW,341,0.0,1.0,89,0.00,,,0.00,HR-IXPWINDi_r2_v1.2.,2013-03-09 07:10:00,
2013-03-09 02:15:00,28.3,25.5,30.27,NNW,341,0.0,1.0,89,0.00,,,0.00,HR-IXPWINDi_r2_v1.2.,2013-03-09 07:15:00,
2013-03-09 02:21:00,28.2,25.4,30.27,NNW,341,0.0,1.0,89,0.00,,,0.00,HR-IXPWINDi_r2_v1.2.,2013-03-09 07:21:00,
2013-03-09 02:26:00,28.8,25.7,30.27,NNW,341,0.0,2.0,88,0.00,,,0.00,HR-IXPWINDi_r2_v1.2.,2013-03-09 07:26:00,
2013-03-09 02:31:00,29.1,26.0,30.26,NNW,348,1.0,2.0,88,0.00,,,0.00,HR-IXPWINDi_r2_v1.2.,2013-03-09 07:31:00,
2013-03-09 02:36:00,29.7,26.0,30.26,NNW,341,1.0,2.0,86,0.00,,,0.00,HR-IXPWINDi_r2_v1.2.,2013-03-09 07:36:00,
2013-03-09 02:41:00,29.6,25.9,30.26,NNW,341,0.0,2.0,86,0.00,,,0.00,HR-IXPWINDi_r2_v1.2.,2013-03-09 07:41:00,
2013-03-09 02:47:00,29.4,25.7,30.26,NNW,341,0.0,2.0,86,0.00,,,0.00,HR-IXPWINDi_r2_v1.2.,2013-03-09 07:47:00,
2013-03-09 02:52:00,29.2,25.5,30.26,NNW,341,0.0,1.0,86,0.00,,,0.00,HR-IXPWINDi_r2_v1.2.,2013-03-09 07:52:00,
2013-03-09 02:57:00,29.2,25.5,30.26,WSW,242,0.0,0.0,86,0.00,,,0.00,HR-IXPWINDi_r2_v1.2.,2013-03-09 07:57:00,
2013-03-09 03:02:00,29.4,25.4,30.26,SW,219,1.0,2.0,85,0.00,,,0.00,HR-IXPWINDi_r2_v1.2.,2013-03-09 08:02:00,
2013-03-09 03:07:00,29.6,25.4,30.26,SW,219,1.0,2.0,84,0.00,,,0.00,HR-IXPWINDi_r2_v1.2.,2013-03-09 08:07:00,
2013-03-09 03:13:00,29.8,25.3,30.26,NW,310,0.0,2.0,83,0.00,,,0.00,HR-IXPWINDi_r2_v1.2.,2013-03-09 08:13:00,
2013-03-09 03:18:00,29.6,25.4,30.26,SW,223,1.0,2.0,84,0.00,,,0.00,HR-IXPWINDi_r2_v1.2.,2013-03-09 08:18:00,
2013-03-09 03:23:00,29.4,25.4,30.26,SW,223,0.0,1.0,85,0.00,,,0.00,HR-IXPWINDi_r2_v1.2.,2013-03-09 08:23:00,
2013-03-09 03:28:00,29.1,25.4,30.26,SW,223,0.0,1.0,86,0.00,,,0.00,HR-IXPWINDi_r2_v1.2.,2013-03-09 08:28:00,
2013-03-09 03:33:00,28.8,25.1,30.26,SW,223,0.0,1.0,86,0.00,,,0.00,HR-IXPWINDi_r2_v1.2.,2013-03-09 08:33:00,
2013-03-09 03:38:00,28.5,24.8,30.26,SW,223,0.0,0.0,86,0.00,,,0.00,HR-IXPWINDi_r2_v1.2.,2013-03-09 08:38:00,
2013-03-09 03:44:00,28.1,24.7,30.26,SW,223,0.0,0.0,87,0.00,,,0.00,HR-IXPWINDi_r2_v1.2.,2013-03-09 08:44:00,
2013-03-09 03:49:00,27.9,24.5,30.26,SW,223,0.0,0.0,87,0.00,,,0.00,HR-IXPWINDi_r2_v1.2.,2013-03-09 08:49:00,
2013-03-09 03:54:00,27.5,24.4,30.26,SW,223,0.0,0.0,88,0.00,,,0.00,HR-IXPWINDi_r2_v1.2.,2013-03-09 08:54:00,
2013-03-09 03:59:00,27.2,24.6,30.27,West,277,0.0,1.0,90,0.00,,,0.00,HR-IXPWINDi_r2_v1.2.,2013-03-09 08:59:00,
2013-03-09 04:04:00,26.8,24.3,30.27,North,356,0.0,2.0,90,0.00,,,0.00,HR-IXPWINDi_r2_v1.2.,2013-03-09 09:04:00,
2013-03-09 04:10:00,27.0,24.5,30.27,North,355,0.0,2.0,90,0.00,,,0.00,HR-IXPWINDi_r2_v1.2.,2013-03-09 09:10:00,
2013-03-09 04:15:00,27.8,24.7,30.27,North,6,1.0,5.0,88,0.00,,,0.00,HR-IXPWINDi_r2_v1.2.,2013-03-09 09:15:00,
2013-03-09 04:20:00,29.0,25.0,30.27,NNW,344,0.0,5.0,85,0.00,,,0.00,HR-IXPWINDi_r2_v1.2.,2013-03-09 09:20:00,
2013-03-09 04:25:00,29.1,24.9,30.28,NW,306,3.0,4.0,84,0.00,,,0.00,HR-IXPWINDi_r2_v1.2.,2013-03-09 09:25:00,
2013-03-09 04:30:00,29.4,24.9,30.28,SSE,164,1.0,3.0,83,0.00,,,0.00,HR-IXPWINDi_r2_v1.2.,2013-03-09 09:30:00,
2013-03-09 04:36:00,29.2,25.0,30.29,NW,321,0.0,3.0,84,0.00,,,0.00,HR-IXPWINDi_r2_v1.2.,2013-03-09 09:36:00,
2013-03-09 04:41:00,29.1,24.9,30.29,WNW,294,0.0,2.0,84,0.00,,,0.00,HR-IXPWINDi_r2_v1.2.,2013-03-09 09:41:00,
2013-03-09 04:46:00,28.6,24.7,30.29,WSW,246,1.0,2.0,85,0.00,,,0.00,HR-IXPWINDi_r2_v1.2.,2013-03-09 09:46:00,
2013-03-09 04:51:00,28.1,24.4,30.29,West,264,0.0,2.0,86,0.00,,,0.00,HR-IXPWINDi_r2_v1.2.,2013-03-09 09:51:00,
2013-03-09 04:56:00,27.4,24.3,30.29,West,263,0.0,2.0,88,0.00,,,0.00,HR-IXPWINDi_r2_v1.2.,2013-03-09 09:56:00,
2013-03-09 05:02:00,27.0,24.5,30.29,West,262,0.0,1.0,90,0.00,,,0.00,HR-IXPWINDi_r2_v1.2.,2013-03-09 10:02:00,
2013-03-09 05:07:00,26.7,24.4,30.30,West,262,0.0,1.0,91,0.00,,,0.00,HR-IXPWINDi_r2_v1.2.,2013-03-09 10:07:00,
2013-03-09 05:12:00,26.6,24.3,30.30,West,273,0.0,1.0,91,0.00,,,0.00,HR-IXPWINDi_r2_v1.2.,2013-03-09 10:12:00,
2013-03-09 05:17:00,26.5,24.2,30.29,West,273,1.0,1.0,91,0.00,,,0.00,HR-IXPWINDi_r2_v1.2.,2013-03-09 10:17:00,
2013-03-09 05:22:00,26.7,24.4,30.30,NW,318,0.0,2.0,91,0.00,,,0.00,HR-IXPWINDi_r2_v1.2.,2013-03-09 10:22:00,
2013-03-09 05:28:00,26.4,24.1,30.30,NW,318,0.0,2.0,91,0.00,,,0.00,HR-IXPWINDi_r2_v1.2.,2013-03-09 10:28:00,
2013-03-09 05:33:00,26.1,23.8,30.30,NW,318,0.0,1.0,91,0.00,,,0.00,HR-IXPWINDi_r2_v1.2.,2013-03-09 10:33:00,
2013-03-09 05:38:00,25.8,23.8,30.30,NW,318,0.0,0.0,92,0.00,,,0.00,HR-IXPWINDi_r2_v1.2.,2013-03-09 10:38:00,
2013-03-09 05:43:00,25.8,23.8,30.30,NW,318,0.0,0.0,92,0.00,,,0.00,HR-IXPWINDi_r2_v1.2.,2013-03-09 10:43:00,
2013-03-09 05:49:00,25.7,23.7,30.31,NW,310,0.0,0.0,92,0.00,,,0.00,HR-IXPWINDi_r2_v1.2.,2013-03-09 10:49:00,
2013-03-09 05:54:00,26.5,24.2,30.31,WSW,239,0.0,1.0,91,0.00,,,0.00,HR-IXPWINDi_r2_v1.2.,2013-03-09 10:54:00,
2013-03-09 05:59:00,26.8,24.3,30.31,WSW,238,0.0,1.0,90,0.00,,,0.00,HR-IXPWINDi_r2_v1.2.,2013-03-09 10:59:00,
2013-03-09 06:04:00,26.6,23.8,30.31,WSW,238,0.0,0.0,89,0.00,,,0.00,HR-IXPWINDi_r2_v1.2.,2013-03-09 11:04:00,
2013-03-09 06:09:00,26.5,23.7,30.31,WSW,238,0.0,0.0,89,0.00,,,0.00,HR-IXPWINDi_r2_v1.2.,2013-03-09 11:09:00,
2013-03-09 06:14:00,26.4,23.6,30.31,WSW,238,0.0,0.0,89,0.00,,,0.00,HR-IXPWINDi_r2_v1.2.,2013-03-09 11:14:00,
2013-03-09 06:19:00,26.4,23.6,30.31,WSW,238,0.0,0.0,89,0.00,,,0.00,HR-IXPWINDi_r2_v1.2.,2013-03-09 11:19:00,
2013-03-09 06:25:00,26.1,23.6,30.31,WSW,238,0.0,0.0,90,0.00,,,0.00,HR-IXPWINDi_r2_v1.2.,2013-03-09 11:25:00,
2013-03-09 06:30:00,26.1,23.8,30.31,SW,228,0.0,2.0,91,0.00,,,0.00,HR-IXPWINDi_r2_v1.2.,2013-03-09 11:30:00,
2013-03-09 06:35:00,25.8,23.5,30.32,SW,226,0.0,2.0,91,0.00,,,0.00,HR-IXPWINDi_r2_v1.2.,2013-03-09 11:35:00,
2013-03-09 06:40:00,25.7,23.7,30.32,SW,226,0.0,2.0,92,0.00,,,0.00,HR-IXPWINDi_r2_v1.2.,2013-03-09 11:40:00,
2013-03-09 06:46:00,25.9,23.9,30.32,SW,226,0.0,1.0,92,0.00,,,0.00,HR-IXPWINDi_r2_v1.2.,2013-03-09 11:46:00,
2013-03-09 06:51:00,25.8,23.8,30.32,West,280,0.0,1.0,92,0.00,,,0.00,HR-IXPWINDi_r2_v1.2.,2013-03-09 11:51:00,
2013-03-09 06:56:00,25.8,23.8,30.32,SW,219,0.0,2.0,92,0.00,,,0.00,HR-IXPWINDi_r2_v1.2.,2013-03-09 11:56:00,
2013-03-09 07:01:00,26.0,24.0,30.32,SW,219,0.0,2.0,92,0.00,,,0.00,HR-IXPWINDi_r2_v1.2.,2013-03-09 12:01:00,
2013-03-09 07:06:00,26.4,24.6,30.32,SW,219,0.0,0.0,93,0.00,,,0.00,HR-IXPWINDi_r2_v1.2.,2013-03-09 12:06:00,
2013-03-09 07:12:00,27.0,25.0,30.32,SW,219,0.0,0.0,92,0.00,,,0.00,HR-IXPWINDi_r2_v1.2.,2013-03-09 12:12:00,
2013-03-09 07:17:00,27.7,25.4,30.32,SW,219,0.0,0.0,91,0.00,,,0.00,HR-IXPWINDi_r2_v1.2.,2013-03-09 12:17:00,
2013-03-09 07:22:00,28.3,25.7,30.32,SW,219,0.0,0.0,90,0.00,,,0.00,HR-IXPWINDi_r2_v1.2.,2013-03-09 12:22:00,
2013-03-09 07:27:00,29.0,26.2,30.32,SW,219,0.0,0.0,89,0.00,,,0.00,HR-IXPWINDi_r2_v1.2.,2013-03-09 12:27:00,
2013-03-09 07:33:00,29.4,26.0,30.32,SW,219,0.0,1.0,87,0.00,,,0.00,HR-IXPWINDi_r2_v1.2.,2013-03-09 12:33:00,
2013-03-09 07:38:00,29.8,26.1,30.32,SW,219,0.0,1.0,86,0.00,,,0.00,HR-IXPWINDi_r2_v1.2.,2013-03-09 12:38:00,
2013-03-09 07:43:00,30.6,26.6,30.32,SW,219,0.0,1.0,85,0.00,,,0.00,HR-IXPWINDi_r2_v1.2.,2013-03-09 12:43:00,
2013-03-09 07:48:00,31.5,27.2,30.32,SW,219,0.0,1.0,84,0.00,,,0.00,HR-IXPWINDi_r2_v1.2.,2013-03-09 12:48:00,
2013-03-09 07:54:00,32.2,26.7,30.32,NNW,348,0.0,2.0,80,0.00,,,0.00,HR-IXPWINDi_r2_v1.2.,2013-03-09 12:54:00,
2013-03-09 07:59:00,32.7,26.9,30.32,NNW,334,0.0,4.0,79,0.00,,,0.00,HR-IXPWINDi_r2_v1.2.,2013-03-09 12:59:00,
2013-03-09 08:04:00,33.4,27.0,30.32,NNW,334,0.0,4.0,77,0.00,,,0.00,HR-IXPWINDi_r2_v1.2.,2013-03-09 13:04:00,
2013-03-09 08:09:00,34.0,26.9,30.32,North,349,0.0,3.0,75,0.00,,,0.00,HR-IXPWINDi_r2_v1.2.,2013-03-09 13:09:00,
2013-03-09 08:15:00,34.7,27.2,30.33,East,87,1.0,3.0,74,0.00,,,0.00,HR-IXPWINDi_r2_v1.2.,2013-03-09 13:15:00,
2013-03-09 08:20:00,35.3,26.8,30.32,North,351,1.0,4.0,71,0.00,,,0.00,HR-IXPWINDi_r2_v1.2.,2013-03-09 13:20:00,
2013-03-09 08:25:00,35.8,27.3,30.33,NNW,344,1.0,6.0,71,0.00,,,0.00,HR-IXPWINDi_r2_v1.2.,2013-03-09 13:25:00,
2013-03-09 08:30:00,36.1,26.9,30.33,NNW,344,1.0,6.0,69,0.00,,,0.00,HR-IXPWINDi_r2_v1.2.,2013-03-09 13:30:00,
2013-03-09 08:36:00,36.5,26.2,30.33,NNW,341,3.0,5.0,66,0.00,,,0.00,HR-IXPWINDi_r2_v1.2.,2013-03-09 13:36:00,
2013-03-09 08:41:00,36.8,26.5,30.32,ENE,74,1.0,6.0,66,0.00,,,0.00,HR-IXPWINDi_r2_v1.2.,2013-03-09 13:41:00,
2013-03-09 08:46:00,37.2,26.5,30.32,NW,323,1.0,8.0,65,0.00,,,0.00,HR-IXPWINDi_r2_v1.2.,2013-03-09 13:46:00,
2013-03-09 08:51:00,37.5,26.0,30.32,North,2,2.0,8.0,63,0.00,,,0.00,HR-IXPWINDi_r2_v1.2.,2013-03-09 13:51:00,
2013-03-09 08:57:00,37.9,25.6,30.32,North,2,3.0,8.0,61,0.00,,,0.00,HR-IXPWINDi_r2_v1.2.,2013-03-09 13:57:00,
2013-03-09 09:02:00,38.2,25.9,30.32,North,360,5.0,8.0,61,0.00,,,0.00,HR-IXPWINDi_r2_v1.2.,2013-03-09 14:02:00,
2013-03-09 09:07:00,38.5,26.2,30.32,South,176,1.0,8.0,61,0.00,,,0.00,HR-IXPWINDi_r2_v1.2.,2013-03-09 14:07:00,
2013-03-09 09:12:00,38.7,25.6,30.32,North,351,6.0,11.0,59,0.00,,,0.00,HR-IXPWINDi_r2_v1.2.,2013-03-09 14:12:00,
2013-03-09 09:17:00,38.9,25.8,30.32,North,1,4.0,11.0,59,0.00,,,0.00,HR-IXPWINDi_r2_v1.2.,2013-03-09 14:17:00,
2013-03-09 09:23:00,39.0,25.9,30.32,North,351,1.0,10.0,59,0.00,,,0.01,HR-IXPWINDi_r2_v1.2.,2013-03-09 14:23:00,
2013-03-09 09:28:00,39.1,26.0,30.32,NNW,339,6.0,8.0,59,0.00,,,0.01,HR-IXPWINDi_r2_v1.2.,2013-03-09 14:28:00,
2013-03-09 09:33:00,39.3,25.7,30.32,NNW,335,5.0,10.0,58,0.00,,,0.01,HR-IXPWINDi_r2_v1.2.,2013-03-09 14:33:00,
2013-03-09 09:38:00,39.4,25.4,30.32,NNW,334,2.0,10.0,57,0.00,,,0.01,HR-IXPWINDi_r2_v1.2.,2013-03-09 14:38:00,
2013-03-09 09:43:00,39.6,26.4,30.32,NNE,15,1.0,9.0,59,0.00,,,0.01,HR-IXPWINDi_r2_v1.2.,2013-03-09 14:43:00,
2013-03-09 09:48:00,39.8,25.8,30.32,NNW,341,2.0,7.0,57,0.00,,,0.01,HR-IXPWINDi_r2_v1.2.,2013-03-09 14:48:00,
2013-03-09 09:54:00,40.0,25.6,30.32,North,355,2.0,11.0,56,0.00,,,0.01,HR-IXPWINDi_r2_v1.2.,2013-03-09 14:54:00,
2013-03-09 09:59:00,40.3,26.7,30.32,NNE,13,2.0,11.0,58,0.00,,,0.01,HR-IXPWINDi_r2_v1.2.,2013-03-09 14:59:00,
2013-03-09 10:04:00,40.6,26.1,30.32,ESE,112,4.0,9.0,56,0.00,,,0.01,HR-IXPWINDi_r2_v1.2.,2013-03-09 15:04:00,
2013-03-09 10:09:00,41.1,26.6,30.32,NNW,348,2.0,9.0,56,0.00,,,0.01,HR-IXPWINDi_r2_v1.2.,2013-03-09 15:09:00,
2013-03-09 10:14:00,41.3,26.8,30.32,North,349,4.0,9.0,56,0.00,,,0.01,HR-IXPWINDi_r2_v1.2.,2013-03-09 15:14:00,
2013-03-09 10:19:00,41.6,26.2,30.32,East,79,3.0,6.0,54,0.00,,,0.01,HR-IXPWINDi_r2_v1.2.,2013-03-09 15:19:00,
2013-03-09 10:24:00,41.9,26.5,30.32,North,349,4.0,6.0,54,0.00,,,0.01,HR-IXPWINDi_r2_v1.2.,2013-03-09 15:24:00,
2013-03-09 10:29:00,41.9,26.0,30.32,NNW,340,5.0,7.0,53,0.00,,,0.01,HR-IXPWINDi_r2_v1.2.,2013-03-09 15:29:00,
2013-03-09 10:35:00,42.1,26.6,30.32,SW,233,2.0,7.0,54,0.00,,,0.01,HR-IXPWINDi_r2_v1.2.,2013-03-09 15:35:00,
2013-03-09 10:40:00,42.3,26.4,30.31,NNW,341,6.0,7.0,53,0.00,,,0.01,HR-IXPWINDi_r2_v1.2.,2013-03-09 15:40:00,
2013-03-09 10:45:00,42.6,27.1,30.31,NNW,348,2.0,7.0,54,0.00,,,0.01,HR-IXPWINDi_r2_v1.2.,2013-03-09 15:45:00,
2013-03-09 10:50:00,42.8,27.3,30.31,North,9,2.0,7.0,54,0.00,,,0.01,HR-IXPWINDi_r2_v1.2.,2013-03-09 15:50:00,
2013-03-09 10:55:00,42.9,27.4,30.31,NW,315,2.0,9.0,54,0.00,,,0.01,HR-IXPWINDi_r2_v1.2.,2013-03-09 15:55:00,
2013-03-09 11:01:00,43.3,26.8,30.31,North,8,0.0,9.0,52,0.00,,,0.01,HR-IXPWINDi_r2_v1.2.,2013-03-09 16:01:00,
2013-03-09 11:06:00,43.7,26.7,30.30,NNW,344,3.0,7.0,51,0.00,,,0.01,HR-IXPWINDi_r2_v1.2.,2013-03-09 16:06:00,
2013-03-09 11:11:00,43.6,26.2,30.31,NNW,331,1.0,9.0,50,0.00,,,0.01,HR-IXPWINDi_r2_v1.2.,2013-03-09 16:11:00,
2013-03-09 11:16:00,43.8,26.8,30.31,NNW,328,3.0,9.0,51,0.00,,,0.01,HR-IXPWINDi_r2_v1.2.,2013-03-09 16:16:00,
2013-03-09 11:21:00,44.2,27.2,30.30,NW,321,1.0,8.0,51,0.00,,,0.01,HR-IXPWINDi_r2_v1.2.,2013-03-09 16:21:00,
2013-03-09 11:27:00,44.5,27.5,30.30,SSW,197,2.0,8.0,51,0.00,,,0.01,HR-IXPWINDi_r2_v1.2.,2013-03-09 16:27:00,
2013-03-09 11:32:00,44.8,27.3,30.30,North,359,2.0,7.0,50,0.00,,,0.01,HR-IXPWINDi_r2_v1.2.,2013-03-09 16:32:00,
2013-03-09 11:37:00,45.0,27.0,30.31,NNW,347,4.0,5.0,49,0.00,,,0.01,HR-IXPWINDi_r2_v1.2.,2013-03-09 16:37:00,
2013-03-09 11:42:00,45.1,28.0,30.30,ENE,69,1.0,5.0,51,0.00,,,0.01,HR-IXPWINDi_r2_v1.2.,2013-03-09 16:42:00,
2013-03-09 11:47:00,45.6,27.0,30.30,North,359,0.0,8.0,48,0.00,,,0.01,HR-IXPWINDi_r2_v1.2.,2013-03-09 16:47:00,
2013-03-09 11:53:00,45.5,27.4,30.30,NW,321,3.0,8.0,49,0.00,,,0.01,HR-IXPWINDi_r2_v1.2.,2013-03-09 16:53:00,
2013-03-09 11:58:00,45.5,27.9,30.30,NNW,344,4.0,8.0,50,0.00,,,0.01,HR-IXPWINDi_r2_v1.2.,2013-03-09 16:58:00,
2013-03-09 12:03:00,45.7,27.1,30.30,North,8,3.0,8.0,48,0.00,,,0.02,HR-IXPWINDi_r2_v1.2.,2013-03-09 17:03:00,
2013-03-09 12:08:00,46.2,28.1,30.30,NNW,344,1.0,7.0,49,0.00,,,0.02,HR-IXPWINDi_r2_v1.2.,2013-03-09 17:08:00,
2013-03-09 12:14:00,46.9,28.2,30.30,NNW,342,3.0,5.0,48,0.00,,,0.02,HR-IXPWINDi_r2_v1.2.,2013-03-09 17:14:00,
2013-03-09 12:19:00,47.1,28.4,30.29,NE,43,1.0,5.0,48,0.00,,,0.02,HR-IXPWINDi_r2_v1.2.,2013-03-09 17:19:00,
2013-03-09 12:24:00,47.7,28.4,30.29,WNW,282,1.0,5.0,47,0.00,,,0.02,HR-IXPWINDi_r2_v1.2.,2013-03-09 17:24:00,
2013-03-09 12:29:00,47.6,27.8,30.28,NNE,16,2.0,6.0,46,0.00,,,0.02,HR-IXPWINDi_r2_v1.2.,2013-03-09 17:29:00,
2013-03-09 12:35:00,47.5,27.2,30.28,NNW,340,2.0,6.0,45,0.00,,,0.02,HR-IXPWINDi_r2_v1.2.,2013-03-09 17:35:00,
2013-03-09 12:40:00,48.0,28.7,30.28,North,352,1.0,6.0,47,0.00,,,0.02,HR-IXPWINDi_r2_v1.2.,2013-03-09 17:40:00,
2013-03-09 12:45:00,48.0,27.1,30.27,NNE,19,2.0,7.0,44,0.00,,,0.02,HR-IXPWINDi_r2_v1.2.,2013-03-09 17:45:00,
2013-03-09 12:50:00,48.6,28.7,30.27,ENE,66,1.0,7.0,46,0.00,,,0.02,HR-IXPWINDi_r2_v1.2.,2013-03-09 17:50:00,
2013-03-09 12:55:00,48.5,28.1,30.27,NNW,341,4.0,6.0,45,0.00,,,0.02,HR-IXPWINDi_r2_v1.2.,2013-03-09 17:55:00,
2013-03-09 13:01:00,48.3,27.9,30.27,SE,141,2.0,8.0,45,0.00,,,0.02,HR-IXPWINDi_r2_v1.2.,2013-03-09 18:01:00,
2013-03-09 13:06:00,48.9,29.0,30.26,NNW,346,5.0,8.0,46,0.00,,,0.02,HR-IXPWINDi_r2_v1.2.,2013-03-09 18:06:00,
2013-03-09 13:11:00,48.7,27.7,30.26,NNE,27,0.0,6.0,44,0.00,,,0.02,HR-IXPWINDi_r2_v1.2.,2013-03-09 18:11:00,
2013-03-09 13:16:00,48.9,27.9,30.26,ENE,69,1.0,7.0,44,0.00,,,0.02,HR-IXPWINDi_r2_v1.2.,2013-03-09 18:16:00,
2013-03-09 13:21:00,49.0,27.5,30.26,NNE,13,1.0,7.0,43,0.00,,,0.02,HR-IXPWINDi_r2_v1.2.,2013-03-09 18:21:00,
2013-03-09 13:26:00,48.8,28.4,30.26,South,174,2.0,11.0,45,0.00,,,0.02,HR-IXPWINDi_r2_v1.2.,2013-03-09 18:26:00,
2013-03-09 13:32:00,48.9,27.4,30.25,NNW,334,3.0,11.0,43,0.00,,,0.02,HR-IXPWINDi_r2_v1.2.,2013-03-09 18:32:00,
2013-03-09 13:37:00,49.2,27.6,30.25,NNW,338,6.0,9.0,43,0.00,,,0.02,HR-IXPWINDi_r2_v1.2.,2013-03-09 18:37:00,
2013-03-09 13:42:00,49.4,28.4,30.25,NNE,15,1.0,9.0,44,0.00,,,0.02,HR-IXPWINDi_r2_v1.2.,2013-03-09 18:42:00,
2013-03-09 13:47:00,49.3,27.7,30.25,NNW,342,4.0,8.0,43,0.00,,,0.02,HR-IXPWINDi_r2_v1.2.,2013-03-09 18:47:00,
2013-03-09 13:52:00,49.4,27.3,30.25,NNE,13,3.0,8.0,42,0.00,,,0.02,HR-IXPWINDi_r2_v1.2.,2013-03-09 18:52:00,
2013-03-09 13:57:00,49.5,27.3,30.25,NNE,13,1.0,5.0,42,0.00,,,0.02,HR-IXPWINDi_r2_v1.2.,2013-03-09 18:57:00,
2013-03-09 14:02:00,50.1,28.5,30.25,North,352,2.0,5.0,43,0.00,,,0.02,HR-IXPWINDi_r2_v1.2.,2013-03-09 19:02:00,
2013-03-09 14:08:00,50.5,28.2,30.25,NNW,345,0.0,4.0,42,0.00,,,0.02,HR-IXPWINDi_r2_v1.2.,2013-03-09 19:08:00,
2013-03-09 14:13:00,50.6,28.3,30.25,NNW,327,2.0,5.0,42,0.00,,,0.02,HR-IXPWINDi_r2_v1.2.,2013-03-09 19:13:00,
2013-03-09 14:18:00,50.5,27.7,30.25,North,359,1.0,7.0,41,0.00,,,0.02,HR-IXPWINDi_r2_v1.2.,2013-03-09 19:18:00,
2013-03-09 14:24:00,50.7,27.2,30.25,NW,316,3.0,7.0,40,0.00,,,0.02,HR-IXPWINDi_r2_v1.2.,2013-03-09 19:24:00,
2013-03-09 14:29:00,50.7,28.4,30.25,SSW,211,1.0,6.0,42,0.00,,,0.02,HR-IXPWINDi_r2_v1.2.,2013-03-09 19:29:00,
2013-03-09 14:34:00,51.0,27.5,30.25,NNE,15,4.0,4.0,40,0.00,,,0.02,HR-IXPWINDi_r2_v1.2.,2013-03-09 19:34:00,
2013-03-09 14:39:00,51.0,28.1,30.25,NNE,33,3.0,6.0,41,0.00,,,0.02,HR-IXPWINDi_r2_v1.2.,2013-03-09 19:39:00,
2013-03-09 14:44:00,51.1,27.6,30.25,North,349,2.0,6.0,40,0.00,,,0.02,HR-IXPWINDi_r2_v1.2.,2013-03-09 19:44:00,
2013-03-09 14:50:00,51.4,27.9,30.26,SW,235,1.0,6.0,40,0.00,,,0.02,HR-IXPWINDi_r2_v1.2.,2013-03-09 19:50:00,
2013-03-09 14:55:00,51.3,26.5,30.26,NNW,334,4.0,6.0,38,0.00,,,0.02,HR-IXPWINDi_r2_v1.2.,2013-03-09 19:55:00,
2013-03-09 15:00:00,51.0,26.9,30.26,NNE,17,1.0,5.0,39,0.00,,,0.02,HR-IXPWINDi_r2_v1.2.,2013-03-09 20:00:00,
2013-03-09 15:05:00,51.7,27.5,30.26,NNE,18,1.0,4.0,39,0.00,,,0.02,HR-IXPWINDi_r2_v1.2.,2013-03-09 20:05:00,
2013-03-09 15:11:00,51.6,26.8,30.27,NNW,348,0.0,4.0,38,0.00,,,0.02,HR-IXPWINDi_r2_v1.2.,2013-03-09 20:11:00,
2013-03-09 15:16:00,52.0,29.0,30.27,North,351,2.0,4.0,41,0.00,,,0.02,HR-IXPWINDi_r2_v1.2.,2013-03-09 20:16:00,
2013-03-09 15:21:00,51.8,26.3,30.27,NNE,22,1.0,7.0,37,0.00,,,0.02,HR-IXPWINDi_r2_v1.2.,2013-03-09 20:21:00,
2013-03-09 15:26:00,51.5,26.7,30.27,NNW,348,1.0,7.0,38,0.00,,,0.02,HR-IXPWINDi_r2_v1.2.,2013-03-09 20:26:00,
2013-03-09 15:31:00,51.7,26.9,30.27,NNW,335,1.0,6.0,38,0.00,,,0.02,HR-IXPWINDi_r2_v1.2.,2013-03-09 20:31:00,
2013-03-09 15:37:00,51.5,26.7,30.27,ENE,62,0.0,5.0,38,0.00,,,0.02,HR-IXPWINDi_r2_v1.2.,2013-03-09 20:37:00,
2013-03-09 15:42:00,51.6,27.4,30.27,NNW,334,2.0,4.0,39,0.00,,,0.02,HR-IXPWINDi_r2_v1.2.,2013-03-09 20:42:00,
2013-03-09 15:47:00,51.4,26.0,30.27,NNE,27,2.0,4.0,37,0.00,,,0.02,HR-IXPWINDi_r2_v1.2.,2013-03-09 20:47:00,
2013-03-09 15:52:00,51.5,26.1,30.27,ENE,65,3.0,4.0,37,0.00,,,0.02,HR-IXPWINDi_r2_v1.2.,2013-03-09 20:52:00,
2013-03-09 15:57:00,51.5,25.4,30.27,SE,136,1.0,4.0,36,0.00,,,0.02,HR-IXPWINDi_r2_v1.2.,2013-03-09 20:57:00,
2013-03-09 16:02:00,51.5,26.7,30.27,ESE,114,3.0,9.0,38,0.00,,,0.02,HR-IXPWINDi_r2_v1.2.,2013-03-09 21:02:00,
2013-03-09 16:07:00,51.0,26.3,30.27,North,354,2.0,9.0,38,0.00,,,0.02,HR-IXPWINDi_r2_v1.2.,2013-03-09 21:07:00,
2013-03-09 16:12:00,50.8,26.1,30.27,NE,53,0.0,4.0,38,0.00,,,0.02,HR-IXPWINDi_r2_v1.2.,2013-03-09 21:12:00,
2013-03-09 16:18:00,50.7,25.4,30.27,NNW,342,1.0,4.0,37,0.00,,,0.02,HR-IXPWINDi_r2_v1.2.,2013-03-09 21:18:00,
2013-03-09 16:23:00,50.5,24.5,30.27,NNW,331,2.0,5.0,36,0.00,,,0.02,HR-IXPWINDi_r2_v1.2.,2013-03-09 21:23:00,
2013-03-09 16:28:00,50.4,25.1,30.27,North,5,1.0,5.0,37,0.00,,,0.02,HR-IXPWINDi_r2_v1.2.,2013-03-09 21:28:00,
2013-03-09 16:33:00,50.4,24.4,30.27,SSE,157,1.0,2.0,36,0.00,,,0.02,HR-IXPWINDi_r2_v1.2.,2013-03-09 21:33:00,
2013-03-09 16:39:00,50.4,26.4,30.27,WSW,245,0.0,2.0,39,0.00,,,0.02,HR-IXPWINDi_r2_v1.2.,2013-03-09 21:39:00,
2013-03-09 16:44:00,50.6,25.3,30.27,WSW,255,1.0,2.0,37,0.00,,,0.02,HR-IXPWINDi_r2_v1.2.,2013-03-09 21:44:00,
2013-03-09 16:49:00,50.6,23.9,30.27,NW,320,0.0,4.0,35,0.00,,,0.02,HR-IXPWINDi_r2_v1.2.,2013-03-09 21:49:00,
2013-03-09 16:54:00,50.2,25.6,30.27,NNW,340,1.0,4.0,38,0.00,,,0.02,HR-IXPWINDi_r2_v1.2.,2013-03-09 21:54:00,
2013-03-09 16:59:00,49.6,25.6,30.27,NNW,340,0.0,4.0,39,0.00,,,0.02,HR-IXPWINDi_r2_v1.2.,2013-03-09 21:59:00,
2013-03-09 17:04:00,49.2,25.9,30.27,NNW,339,0.0,2.0,40,0.00,,,0.02,HR-IXPWINDi_r2_v1.2.,2013-03-09 22:04:00,
2013-03-09 17:10:00,49.0,25.7,30.27,West,259,0.0,2.0,40,0.00,,,0.02,HR-IXPWINDi_r2_v1.2.,2013-03-09 22:10:00,
2013-03-09 17:15:00,48.7,25.4,30.27,NNW,348,1.0,3.0,40,0.00,,,0.02,HR-IXPWINDi_r2_v1.2.,2013-03-09 22:15:00,
2013-03-09 17:20:00,48.3,25.7,30.27,NNW,348,0.0,3.0,41,0.00,,,0.02,HR-IXPWINDi_r2_v1.2.,2013-03-09 22:20:00,
2013-03-09 17:25:00,47.8,25.2,30.27,NNW,348,1.0,2.0,41,0.00,,,0.02,HR-IXPWINDi_r2_v1.2.,2013-03-09 22:25:00,
2013-03-09 17:30:00,47.5,25.5,30.27,East,82,0.0,3.0,42,0.00,,,0.02,HR-IXPWINDi_r2_v1.2.,2013-03-09 22:30:00,
2013-03-09 17:35:00,46.9,25.6,30.27,East,82,1.0,3.0,43,0.00,,,0.02,HR-IXPWINDi_r2_v1.2.,2013-03-09 22:35:00,
2013-03-09 17:40:00,46.6,25.8,30.28,East,82,0.0,1.0,44,0.00,,,0.02,HR-IXPWINDi_r2_v1.2.,2013-03-09 22:40:00,
2013-03-09 17:46:00,46.1,25.4,30.28,East,82,0.0,1.0,44,0.00,,,0.02,HR-IXPWINDi_r2_v1.2.,2013-03-09 22:46:00,
2013-03-09 17:51:00,45.5,25.4,30.28,East,84,0.0,1.0,45,0.00,,,0.02,HR-IXPWINDi_r2_v1.2.,2013-03-09 22:51:00,
2013-03-09 17:56:00,44.6,26.1,30.28,East,83,0.0,1.0,48,0.00,,,0.02,HR-IXPWINDi_r2_v1.2.,2013-03-09 22:56:00,
2013-03-09 18:01:00,43.9,26.0,30.29,SW,235,0.0,1.0,49,0.00,,,0.02,HR-IXPWINDi_r2_v1.2.,2013-03-09 23:01:00,
2013-03-09 18:06:00,43.5,25.6,30.29,SW,235,0.0,1.0,49,0.00,,,0.02,HR-IXPWINDi_r2_v1.2.,2013-03-09 23:06:00,
2013-03-09 18:11:00,43.1,25.2,30.28,SW,236,0.0,0.0,49,0.00,,,0.02,HR-IXPWINDi_r2_v1.2.,2013-03-09 23:11:00,
2013-03-09 18:16:00,42.7,24.9,30.29,SW,236,0.0,0.0,49,0.00,,,0.02,HR-IXPWINDi_r2_v1.2.,2013-03-09 23:16:00,
2013-03-09 18:21:00,42.6,24.8,30.29,SW,235,0.0,0.0,49,0.00,,,0.02,HR-IXPWINDi_r2_v1.2.,2013-03-09 23:21:00,
2013-03-09 18:27:00,42.5,25.6,30.29,SW,235,0.0,0.0,51,0.00,,,0.02,HR-IXPWINDi_r2_v1.2.,2013-03-09 23:27:00,
2013-03-09 18:32:00,42.2,25.4,30.30,SW,235,1.0,1.0,51,0.00,,,0.02,HR-IXPWINDi_r2_v1.2.,2013-03-09 23:32:00,
2013-03-09 18:37:00,41.9,25.5,30.30,SW,236,0.0,1.0,52,0.00,,,0.02,HR-IXPWINDi_r2_v1.2.,2013-03-09 23:37:00,
2013-03-09 18:42:00,41.2,25.8,30.30,SW,236,0.0,1.0,54,0.00,,,0.02,HR-IXPWINDi_r2_v1.2.,2013-03-09 23:42:00,
2013-03-09 18:48:00,40.4,25.9,30.30,SW,235,0.0,1.0,56,0.00,,,0.02,HR-IXPWINDi_r2_v1.2.,2013-03-09 23:48:00,
2013-03-09 18:53:00,40.0,25.1,30.30,SW,235,1.0,1.0,55,0.00,,,0.02,HR-IXPWINDi_r2_v1.2.,2013-03-09 23:53:00,
2013-03-09 18:58:00,39.7,25.3,30.30,SW,235,0.0,1.0,56,0.00,,,0.02,HR-IXPWINDi_r2_v1.2.,2013-03-09 23:58:00,
2013-03-09 19:03:00,39.3,25.3,30.30,SW,235,0.0,1.0,57,0.00,,,0.02,HR-IXPWINDi_r2_v1.2.,2013-03-10 00:03:00,
2013-03-09 19:09:00,39.1,24.7,30.30,SW,235,0.0,0.0,56,0.00,,,0.02,HR-IXPWINDi_r2_v1.2.,2013-03-10 00:09:00,
2013-03-09 19:14:00,39.3,24.9,30.30,SW,235,0.0,0.0,56,0.00,,,0.02,HR-IXPWINDi_r2_v1.2.,2013-03-10 00:14:00,
2013-03-09 19:19:00,38.9,25.4,30.30,SW,235,0.0,0.0,58,0.00,,,0.02,HR-IXPWINDi_r2_v1.2.,2013-03-10 00:19:00,
2013-03-09 19:24:00,38.5,25.0,30.30,SW,235,0.0,0.0,58,0.00,,,0.02,HR-IXPWINDi_r2_v1.2.,2013-03-10 00:24:00,
2013-03-09 19:29:00,37.8,25.5,30.30,SW,236,0.0,0.0,61,0.00,,,0.02,HR-IXPWINDi_r2_v1.2.,2013-03-10 00:29:00,
2013-03-09 19:35:00,36.9,25.8,30.30,SW,235,0.0,1.0,64,0.00,,,0.02,HR-IXPWINDi_r2_v1.2.,2013-03-10 00:35:00,
2013-03-09 19:40:00,36.3,26.7,30.31,SW,235,0.0,1.0,68,0.00,,,0.02,HR-IXPWINDi_r2_v1.2.,2013-03-10 00:40:00,
2013-03-09 19:45:00,36.0,26.8,30.31,SW,236,0.0,1.0,69,0.00,,,0.02,HR-IXPWINDi_r2_v1.2.,2013-03-10 00:45:00,
2013-03-09 19:50:00,35.7,26.5,30.31,SW,236,0.0,0.0,69,0.00,,,0.02,HR-IXPWINDi_r2_v1.2.,2013-03-10 00:50:00,
2013-03-09 19:55:00,35.2,27.4,30.31,SSW,208,0.0,1.0,73,0.00,,,0.02,HR-IXPWINDi_r2_v1.2.,2013-03-10 00:55:00,
2013-03-09 20:00:00,34.4,25.6,30.31,SSW,209,0.0,1.0,70,0.00,,,0.02,HR-IXPWINDi_r2_v1.2.,2013-03-10 01:00:00,
2013-03-09 20:06:00,34.5,26.7,30.31,WSW,240,1.0,2.0,73,0.00,,,0.02,HR-IXPWINDi_r2_v1.2.,2013-03-10 01:06:00,
2013-03-09 20:11:00,34.5,27.1,30.31,SW,226,1.0,3.0,74,0.00,,,0.02,HR-IXPWINDi_r2_v1.2.,2013-03-10 01:11:00,
2013-03-09 20:16:00,34.6,26.8,30.31,SW,226,0.0,3.0,73,0.00,,,0.02,HR-IXPWINDi_r2_v1.2.,2013-03-10 01:16:00,
2013-03-09 20:21:00,34.4,26.3,30.31,SW,226,0.0,1.0,72,0.00,,,0.02,HR-IXPWINDi_r2_v1.2.,2013-03-10 01:21:00,
2013-03-09 20:26:00,34.0,26.6,30.32,SW,226,0.0,0.0,74,0.00,,,0.02,HR-IXPWINDi_r2_v1.2.,2013-03-10 01:26:00,
2013-03-09 20:31:00,33.6,26.5,30.32,SW,226,0.0,0.0,75,0.00,,,0.02,HR-IXPWINDi_r2_v1.2.,2013-03-10 01:31:00,
2013-03-09 20:36:00,33.2,26.4,30.32,SW,226,0.0,0.0,76,0.00,,,0.02,HR-IXPWINDi_r2_v1.2.,2013-03-10 01:36:00,
2013-03-09 20:42:00,32.7,26.0,30.32,SW,226,0.0,0.0,76,0.00,,,0.02,HR-IXPWINDi_r2_v1.2.,2013-03-10 01:42:00,
2013-03-09 20:47:00,32.3,25.9,30.32,SW,226,0.0,0.0,77,0.00,,,0.02,HR-IXPWINDi_r2_v1.2.,2013-03-10 01:47:00,
2013-03-09 20:53:00,32.4,26.0,30.32,SW,226,0.0,1.0,77,0.00,,,0.02,HR-IXPWINDi_r2_v1.2.,2013-03-10 01:53:00,
2013-03-09 20:58:00,32.1,26.0,30.32,SW,226,0.0,1.0,78,0.00,,,0.02,HR-IXPWINDi_r2_v1.2.,2013-03-10 01:58:00,
2013-03-09 21:03:00,32.0,26.2,30.32,SW,226,1.0,1.0,79,0.00,,,0.02,HR-IXPWINDi_r2_v1.2.,2013-03-10 02:03:00,
2013-03-09 21:08:00,31.8,26.0,30.32,SW,226,0.0,1.0,79,0.00,,,0.02,HR-IXPWINDi_r2_v1.2.,2013-03-10 02:08:00,
2013-03-09 21:14:00,31.4,25.6,30.32,SW,226,0.0,1.0,79,0.00,,,0.02,HR-IXPWINDi_r2_v1.2.,2013-03-10 02:14:00,
2013-03-09 21:19:00,31.2,25.4,30.32,SW,226,0.0,0.0,79,0.00,,,0.02,HR-IXPWINDi_r2_v1.2.,2013-03-10 02:19:00,
2013-03-09 21:25:00,30.9,25.4,30.32,SW,226,0.0,0.0,80,0.00,,,0.02,HR-IXPWINDi_r2_v1.2.,2013-03-10 02:25:00,
2013-03-09 21:30:00,30.7,25.6,30.32,SW,226,0.0,0.0,81,0.00,,,0.02,HR-IXPWINDi_r2_v1.2.,2013-03-10 02:30:00,
2013-03-09 21:35:00,30.7,25.6,30.32,SW,226,0.0,0.0,81,0.00,,,0.02,HR-IXPWINDi_r2_v1.2.,2013-03-10 02:35:00,
2013-03-09 21:40:00,31.0,25.5,30.33,SW,226,0.0,0.0,80,0.00,,,0.02,HR-IXPWINDi_r2_v1.2.,2013-03-10 02:40:00,
2013-03-09 21:45:00,30.8,25.4,30.33,SW,226,0.0,0.0,80,0.00,,,0.02,HR-IXPWINDi_r2_v1.2.,2013-03-10 02:45:00,
2013-03-09 21:50:00,30.6,25.2,30.33,SW,226,0.0,0.0,80,0.00,,,0.02,HR-IXPWINDi_r2_v1.2.,2013-03-10 02:50:00,
2013-03-09 21:55:00,30.8,25.4,30.33,SW,226,0.0,0.0,80,0.00,,,0.02,HR-IXPWINDi_r2_v1.2.,2013-03-10 02:55:00,
2013-03-09 22:01:00,30.8,25.4,30.33,SW,226,0.0,0.0,80,0.00,,,0.02,HR-IXPWINDi_r2_v1.2.,2013-03-10 03:01:00,
2013-03-09 22:06:00,30.8,25.6,30.34,SW,226,0.0,0.0,81,0.00,,,0.02,HR-IXPWINDi_r2_v1.2.,2013-03-10 03:06:00,
2013-03-09 22:11:00,30.9,25.4,30.33,West,260,0.0,1.0,80,0.00,,,0.02,HR-IXPWINDi_r2_v1.2.,2013-03-10 03:11:00,
2013-03-09 22:16:00,30.9,25.1,30.33,West,260,0.0,1.0,79,0.00,,,0.02,HR-IXPWINDi_r2_v1.2.,2013-03-10 03:16:00,
2013-03-09 22:21:00,31.1,25.3,30.33,West,260,0.0,1.0,79,0.00,,,0.02,HR-IXPWINDi_r2_v1.2.,2013-03-10 03:21:00,
2013-03-09 22:26:00,30.9,25.1,30.34,West,259,0.0,1.0,79,0.00,,,0.02,HR-IXPWINDi_r2_v1.2.,2013-03-10 03:26:00,
2013-03-09 22:31:00,30.5,25.1,30.34,West,259,0.0,1.0,80,0.00,,,0.02,HR-IXPWINDi_r2_v1.2.,2013-03-10 03:31:00,
2013-03-09 22:36:00,30.2,25.1,30.33,West,259,0.0,0.0,81,0.00,,,0.02,HR-IXPWINDi_r2_v1.2.,2013-03-10 03:36:00,
2013-03-09 22:41:00,29.7,24.6,30.33,West,259,0.0,0.0,81,0.00,,,0.02,HR-IXPWINDi_r2_v1.2.,2013-03-10 03:41:00,
2013-03-09 22:46:00,29.4,24.6,30.33,West,259,0.0,0.0,82,0.00,,,0.02,HR-IXPWINDi_r2_v1.2.,2013-03-10 03:46:00,
2013-03-09 22:51:00,29.3,24.8,30.33,West,259,0.0,0.0,83,0.00,,,0.02,HR-IXPWINDi_r2_v1.2.,2013-03-10 03:51:00,
2013-03-09 22:57:00,29.1,24.6,30.34,West,260,0.0,0.0,83,0.00,,,0.02,HR-IXPWINDi_r2_v1.2.,2013-03-10 03:57:00,
2013-03-09 23:02:00,28.9,24.7,30.34,West,259,0.0,0.0,84,0.00,,,0.02,HR-IXPWINDi_r2_v1.2.,2013-03-10 04:02:00,
2013-03-09 23:07:00,28.6,24.7,30.34,West,260,0.0,0.0,85,0.00,,,0.02,HR-IXPWINDi_r2_v1.2.,2013-03-10 04:07:00,
2013-03-09 23:12:00,28.4,24.5,30.34,West,259,0.0,0.0,85,0.00,,,0.02,HR-IXPWINDi_r2_v1.2.,2013-03-10 04:12:00,
2013-03-09 23:17:00,28.5,24.8,30.34,West,259,0.0,0.0,86,0.00,,,0.02,HR-IXPWINDi_r2_v1.2.,2013-03-10 04:17:00,
2013-03-09 23:22:00,28.2,24.5,30.34,West,259,0.0,0.0,86,0.00,,,0.02,HR-IXPWINDi_r2_v1.2.,2013-03-10 04:22:00,
2013-03-09 23:27:00,28.1,24.4,30.34,West,259,0.0,0.0,86,0.00,,,0.02,HR-IXPWINDi_r2_v1.2.,2013-03-10 04:27:00,
2013-03-09 23:33:00,28.1,24.4,30.34,West,259,0.0,0.0,86,0.00,,,0.02,HR-IXPWINDi_r2_v1.2.,2013-03-10 04:33:00,
2013-03-09 23:38:00,28.0,24.3,30.34,West,259,0.0,0.0,86,0.00,,,0.02,HR-IXPWINDi_r2_v1.2.,2013-03-10 04:38:00,
2013-03-09 23:43:00,28.2,24.8,30.34,West,259,0.0,0.0,87,0.00,,,0.02,HR-IXPWINDi_r2_v1.2.,2013-03-10 04:43:00,
2013-03-09 23:48:00,28.0,24.6,30.34,West,260,0.0,0.0,87,0.00,,,0.02,HR-IXPWINDi_r2_v1.2.,2013-03-10 04:48:00,
2013-03-09 23:54:00,27.9,24.5,30.34,West,259,0.0,0.0,87,0.00,,,0.02,HR-IXPWINDi_r2_v1.2.,2013-03-10 04:54:00,
2013-03-09 23:59:00,27.9,24.5,30.34,West,259,0.0,0.0,87,0.00,,,0.02,HR-IXPWINDi_r2_v1.2.,2013-03-10 04:59:00,